• Join FlightAware (Why Join?)
  • Login
  • US Flag 
11:02PM EDT


 

Airport Tracker/Info


-or-


 

Live Flight TrackerFlight Track Log ✈ RPA3253 ✈ 17-Jun-2013 ✈ KALB - KCLT

Flight Track Log - Related Links

Times and Time Zones

All times are in EDT time to prevent confusion due to time zone crossing. See the RPA3253 flight status page for this flight to view local times or setup timezone preferences in your user account.

Time Position Orientation Groundspeed Altitude Reporting Facility
EDT Latitude Longitude Course Direction KTS MPH feet Rate Location/Type
08:58PM 42.7278 -73.8081 169° South 153 176 1,300  Level Boston Center
08:59PM 42.6939 -73.8469 220° Southwest 208 239 3,600 2,460 Climbing Boston Center
09:00PM 42.5160 -74.0551 171° South  Level Estimated
09:00PM 42.7328 -73.9014 314° West 198 228 6,900  Level Boston Center
09:01PM 42.4382 -74.1391 180° South  Level Estimated
09:01PM 42.7928 -73.9481 330° Northwest 228 262 10,400  Level Boston Center
09:02PM 42.3603 -74.2228 170° South  Level Estimated
09:02PM 42.8061 -74.0306 282° West 222 255 11,900  Level Boston Center
09:03PM 42.2824 -74.3064 169° South  Level Estimated
09:03PM 42.7144 -74.0311 180° South 161 185 14,200  Level Boston Center
09:04PM 42.6150 -73.9833 161° South 267 307 16,900 2,640 Climbing Boston Center
09:05PM 42.5136 -73.9386 162° South 327 376 19,500 2,100 Climbing Boston Center
09:06PM 42.4058 -73.8881 161° South 377 434 21,200 1,740 Climbing Boston Center
09:07PM 42.2939 -73.8378 162° South 413 475 23,000 1,620 Climbing Boston Center
09:08PM 42.1778 -73.7875 162° South 431 496 24,500 1,440 Climbing Boston Center
09:09PM 42.0611 -73.7850 179° South 431 496 25,900 1,500 Climbing Boston Center
09:11PM 41.8472 -73.8897 200° South 406 467 28,900 1,380 Climbing New York Center
09:12PM 41.7417 -73.9431 201° Southwest 406 467 30,000 960 Climbing New York Center
09:13PM 41.6319 -73.9933 199° South 416 479 30,900 960 Climbing New York Center
09:14PM 41.5264 -74.0464 201° Southwest 411 473 31,900 540 Climbing New York Center
09:15PM 41.4167 -74.1019 201° Southwest 416 479 32,000  Climbing New York Center
09:16PM 41.3067 -74.1572 201° Southwest 416 479 32,000  Level New York Center
09:17PM 41.1928 -74.2067 198° South 421 484 32,000  Level New York Center
09:18PM 41.0831 -74.2589 200° South 421 484 32,000  Level New York Center
09:19PM 40.9989 -74.3533 220° Southwest 406 467 32,000  Level New York Center
09:20PM 40.9208 -74.4536 224° Southwest 405 466 32,000  Level New York Center
09:21PM 40.8472 -74.5428 223° Southwest 405 466 32,000  Level New York Center
09:22PM 40.7647 -74.6453 223° Southwest 405 466 32,000  Level New York Center
09:23PM 40.6844 -74.7447 223° Southwest 405 466 32,000  Level New York Center
09:24PM 40.6039 -74.8439 223° Southwest 405 466 32,000  Level New York Center
09:25PM 40.5233 -74.9428 218° Southwest 405 466 32,000  Level New York Center
09:26PM 40.4950 -74.9540 218° Southwest  Level FlightAware Approximate
09:26PM 40.4403 -75.0469 224° Southwest 405 466 32,000  Level New York Center
09:27PM 40.3553 -75.1478 222° Southwest 410 472 32,000  Level New York Center
09:28PM 40.2767 -75.2461 224° Southwest 405 466 32,000  Level New York Center
09:29PM 40.1981 -75.3417 223° Southwest 405 466 32,000  Level New York Center
09:31PM 40.0940 -75.4623 222° Southwest  Level FlightAware Approximate
09:31PM 40.0339 -75.5369 222° Southwest 400 460 32,000  Level New York Center
09:32PM 39.9506 -75.6369 223° Southwest 400 460 32,000  Level New York Center
09:33PM 39.8750 -75.7481 228° Southwest 405 466 32,000  Level New York Center
09:34PM 39.8056 -75.8592 231° Southwest 410 472 32,000  Level New York Center
09:36PM 39.6353 -76.1250 230° Southwest 420 483 32,000  Level Washington Center
09:37PM 39.5619 -76.2375 230° Southwest 420 483 32,000  Level Washington Center
09:38PM 39.4883 -76.3525 230° Southwest 425 489 32,000  Level Washington Center
09:39PM 39.4167 -76.4647 230° Southwest 425 489 32,000  Level Washington Center
09:40PM 39.3450 -76.5683 228° Southwest 430 495 32,000  Level Washington Center
09:41PM 39.2731 -76.6828 231° Southwest 430 495 32,000  Level Washington Center
09:42PM 39.1992 -76.7967 230° Southwest 425 489 32,000  Level Washington Center
09:43PM 39.1250 -76.9133 231° Southwest 425 489 32,000  Level Washington Center
09:44PM 39.0550 -77.0217 230° Southwest 420 483 32,000  Level Washington Center
09:45PM 38.9725 -77.1189 223° Southwest 413 475 32,000  Level Washington Center
09:46PM 38.8858 -77.2103 219° Southwest 408 470 32,100 540 Climbing Washington Center
09:47PM 38.7969 -77.3069 220° Southwest 415 478 33,200 1,200 Climbing Washington Center
09:48PM 38.7100 -77.4008 220° Southwest 415 478 34,500 1,260 Climbing Washington Center
09:49PM 38.6275 -77.4917 221° Southwest 410 472 35,800 720 Climbing Washington Center
09:50PM 38.5444 -77.5853 221° Southwest 405 466 36,000 60 Climbing Washington Center
09:51PM 38.4597 -77.6758 220° Southwest 405 466 36,000  Level Washington Center
09:52PM 38.3703 -77.7739 221° Southwest 410 472 36,000  Level Washington Center
09:53PM 38.2789 -77.8717 220° Southwest 420 483 36,000  Level Washington Center
09:54PM 38.1894 -77.9694 221° Southwest 428 493 36,000  Level Washington Center
09:55PM 38.0956 -78.0667 219° Southwest 435 501 36,000  Level Washington Center
09:56PM 38.0081 -78.1639 221° Southwest 435 501 36,000  Level Washington Center
09:57PM 37.9392 -78.2669 230° Southwest 407 468 36,000  Level Washington Center
09:58PM 37.8658 -78.3747 229° Southwest 407 468 36,000  Level Washington Center
09:59PM 37.7836 -78.4900 228° Southwest 407 468 36,000  Level Washington Center
10:00PM 37.7103 -78.5975 229° Southwest 407 468 36,000  Level Washington Center
10:01PM 37.6344 -78.7047 228° Southwest 402 463 36,000 -300 Level Washington Center
10:02PM 37.5586 -78.8089 227° Southwest 402 463 35,500 -780 Descending Washington Center
10:03PM 37.4914 -78.9028 228° Southwest 402 463 34,500 -1,140 Descending Washington Center
10:04PM 37.4153 -79.0119 229° Southwest 402 463 33,200 -1,440 Descending Washington Center
10:05PM 37.3372 -79.1183 227° Southwest 408 470 31,700 -1,620 Descending Washington Center
10:06PM 37.2586 -79.2294 228° Southwest 420 483 30,100 -1,620 Descending Washington Center
10:07PM 37.1622 -79.3186 216° Southwest 425 489 28,500 -1,080 Descending Washington Center
10:08PM 37.0531 -79.4072 213° Southwest 434 499 28,000 -300 Descending Washington Center
10:09PM 36.9522 -79.4906 213° Southwest 434 499 28,000  Level Washington Center
10:10PM 36.8536 -79.5711 213° Southwest 434 499 28,000  Level Washington Center
10:11PM 36.7550 -79.6517 213° Southwest 434 499 28,000  Level Washington Center
10:13PM 36.6217 -79.7581 213° Southwest 440 506 28,000 -840 Level Atlanta Center
10:14PM 36.5161 -79.8411 212° Southwest 428 493 26,100 -1,920 Descending Atlanta Center
10:15PM 36.4269 -79.9128 213° Southwest 411 473 24,200 -1,860 Descending Atlanta Center
10:16PM 36.3356 -79.9872 213° Southwest 399 459 22,400 -1,800 Descending Atlanta Center
10:17PM 36.2522 -80.0558 214° Southwest 394 453 20,700 -1,500 Descending Atlanta Center
10:18PM 36.1853 -80.1156 216° Southwest 358 412 19,500 -1,260 Descending Atlanta Center
10:19PM 36.1122 -80.1758 214° Southwest 336 387 18,200 -1,200 Descending Atlanta Center
10:20PM 36.0411 -80.2381 215° Southwest 324 373 17,100 -1,320 Descending Atlanta Center
10:21PM 35.9619 -80.3061 215° Southwest 324 373 15,600 -1,440 Descending Atlanta Center
10:22PM 35.8928 -80.3681 216° Southwest 324 373 14,300 -1,260 Descending Atlanta Center
10:23PM 35.8194 -80.4303 215° Southwest 324 373 13,100 -1,200 Descending Atlanta Center
10:24PM 35.7436 -80.4722 204° Southwest 309 356 11,900 -1,080 Descending Atlanta Center
10:25PM 35.6736 -80.5083 203° Southwest 304 350 11,000 -900 Descending Atlanta Center
10:26PM 35.5956 -80.5450 201° Southwest 304 350 10,100 -1,200 Descending Atlanta Center
10:27PM 35.5192 -80.5789 200° South 304 350 8,600 -1,560 Descending Atlanta Center
10:28PM 35.4433 -80.6281 208° Southwest 283 326 7,000 -1,620 Descending Atlanta Center
10:29PM 35.3992 -80.6883 228° Southwest 284 327 5,400 -1,560 Descending Atlanta Center
10:30PM 35.3428 -80.7644 228° Southwest 273 314 4,000 -1,020 Descending Atlanta Center
10:31PM 35.3300 -80.8311 257° West 217 250 3,400 -720 Descending Atlanta Center
10:32PM 35.2931 -80.8581 211° Southwest 154 177 2,500 -780 Descending Atlanta Center
10:33PM 35.2564 -80.8875 213° Southwest 123 142 1,800 -660 Descending Atlanta Center
10:34PM 35.2342 -80.9189 229° Southwest 127 146 1,100 -720 Descending Atlanta Center